createdAt,value
2018-11-07T00:02:33.818Z,32.80
2018-11-07T00:10:55.066Z,29.03
2018-11-07T00:19:16.532Z,29.83
2018-11-07T00:27:38.095Z,29.73
2018-11-07T00:35:59.402Z,28.50
2018-11-07T00:44:20.656Z,27.67
2018-11-07T00:52:42.484Z,35.70
2018-11-07T01:01:03.779Z,32.20
2018-11-07T01:09:25.059Z,31.33
2018-11-07T01:17:46.298Z,34.73
2018-11-07T01:26:07.544Z,29.03
2018-11-07T01:34:28.778Z,29.63
2018-11-07T01:42:50.089Z,29.57
2018-11-07T01:51:11.386Z,30.07
2018-11-07T01:59:32.639Z,32.47
2018-11-07T02:07:53.897Z,29.07
2018-11-07T02:16:15.129Z,28.67
2018-11-07T02:24:36.402Z,28.53
2018-11-07T02:32:57.683Z,28.93
2018-11-07T02:41:18.931Z,29.77
2018-11-07T02:49:40.159Z,30.33
2018-11-07T02:58:01.410Z,29.73
2018-11-07T03:06:22.773Z,33.53
2018-11-07T03:14:44.016Z,28.17
2018-11-07T03:23:05.252Z,28.90
2018-11-07T03:31:26.511Z,32.57
2018-11-07T03:39:47.970Z,37.07
2018-11-07T03:48:09.259Z,33.37
2018-11-07T03:56:30.644Z,27.87
2018-11-07T04:04:52.054Z,29.23
2018-11-07T04:13:13.413Z,24.93
2018-11-07T04:21:34.782Z,23.87
2018-11-07T04:29:56.184Z,20.93
2018-11-07T04:38:17.545Z,21.83
2018-11-07T04:46:38.905Z,24.10
2018-11-07T04:55:00.257Z,22.30
2018-11-07T05:03:21.623Z,24.20
2018-11-07T05:11:43.017Z,22.53
2018-11-07T05:20:04.381Z,20.03
2018-11-07T05:28:25.806Z,22.33
2018-11-07T05:36:47.190Z,22.20
2018-11-07T05:45:08.589Z,25.57
2018-11-07T05:53:29.952Z,21.73
2018-11-07T06:01:51.341Z,20.77
2018-11-07T06:10:13.398Z,22.30
2018-11-07T06:18:34.760Z,21.53
2018-11-07T06:26:56.141Z,21.50
2018-11-07T06:35:17.517Z,22.90
2018-11-07T06:43:38.904Z,21.07
2018-11-07T06:52:00.290Z,20.47
2018-11-07T07:00:21.674Z,20.57
2018-11-07T07:08:43.070Z,21.00
2018-11-07T07:17:04.547Z,25.80
2018-11-07T07:25:25.947Z,22.07
2018-11-07T07:33:47.375Z,21.43
2018-11-07T07:42:08.719Z,19.67
2018-11-07T07:50:30.094Z,37.40
2018-11-07T07:58:51.461Z,24.77
2018-11-07T08:07:12.847Z,23.63
2018-11-07T08:15:34.202Z,20.07
2018-11-07T08:23:55.567Z,17.70
2018-11-07T08:32:17.034Z,15.57
2018-11-07T08:40:38.431Z,16.57
2018-11-07T08:48:59.850Z,16.57
2018-11-07T08:57:21.237Z,18.07
2018-11-07T09:05:42.681Z,14.97
2018-11-07T09:14:04.063Z,18.77
2018-11-07T09:22:25.416Z,15.73
2018-11-07T09:30:46.834Z,16.50
2018-11-07T09:39:09.358Z,19.07
2018-11-07T09:47:30.822Z,16.60
2018-11-07T09:55:52.153Z,12.50
2018-11-07T10:04:13.544Z,10.30
2018-11-07T10:12:34.998Z,10.43
2018-11-07T10:20:56.513Z,11.00
2018-11-07T10:29:18.411Z,9.87
2018-11-07T10:37:39.383Z,8.83
2018-11-07T10:46:00.837Z,10.60
2018-11-07T10:54:22.209Z,7.80
2018-11-07T11:03:50.178Z,8.47
2018-11-07T11:12:11.592Z,2.50
2018-11-07T11:20:32.990Z,3.40
2018-11-07T11:28:54.457Z,2.87
2018-11-07T11:37:15.870Z,7.93
2018-11-07T11:45:37.243Z,5.57
2018-11-07T11:53:58.670Z,4.27
2018-11-07T12:02:20.334Z,3.40
2018-11-07T12:10:41.641Z,8.20
2018-11-07T12:19:03.024Z,3.40
2018-11-07T12:27:24.418Z,3.20
2018-11-07T12:35:45.773Z,4.60
2018-11-07T12:44:07.626Z,4.63
2018-11-07T12:52:28.989Z,3.90
2018-11-07T13:00:50.364Z,4.77
2018-11-07T13:09:12.110Z,3.80
2018-11-07T13:17:34.211Z,3.83
2018-11-07T13:25:55.563Z,3.53
2018-11-07T13:34:18.011Z,14.70
2018-11-07T13:42:39.399Z,61.53
2018-11-07T13:51:00.814Z,6.43
2018-11-07T13:59:22.256Z,8.67
2018-11-07T14:07:43.578Z,6.40
2018-11-07T14:16:05.065Z,6.30
2018-11-07T14:24:26.419Z,6.50
2018-11-07T14:32:47.902Z,10.77
2018-11-07T14:41:09.266Z,6.53
2018-11-07T14:49:30.652Z,6.40
2018-11-07T14:57:52.057Z,7.03
2018-11-07T15:06:13.525Z,7.73
2018-11-07T15:14:35.006Z,5.87
2018-11-07T15:22:56.441Z,11.07
2018-11-07T15:31:17.908Z,12.73
2018-11-07T15:39:39.306Z,11.07
2018-11-07T15:48:00.683Z,8.67
2018-11-07T15:56:22.174Z,6.03
2018-11-07T16:04:43.563Z,6.27
2018-11-07T16:13:04.974Z,8.60
2018-11-07T16:21:26.295Z,12.27
2018-11-07T16:29:47.666Z,13.13
2018-11-07T16:38:09.054Z,8.53
2018-11-07T16:46:30.462Z,10.57
2018-11-07T16:54:51.833Z,10.53
2018-11-07T17:03:13.193Z,12.17
2018-11-07T17:11:34.871Z,15.50
2018-11-07T17:19:56.290Z,15.80
2018-11-07T17:28:17.754Z,17.83
2018-11-07T17:36:39.219Z,13.07
2018-11-07T17:45:00.579Z,15.10
2018-11-07T17:53:21.931Z,16.70
2018-11-07T18:01:43.298Z,16.63
2018-11-07T18:10:04.741Z,20.63
2018-11-07T18:18:26.110Z,16.10
2018-11-07T18:26:47.555Z,18.23
2018-11-07T18:35:09.488Z,15.67
2018-11-07T18:43:30.795Z,15.30
2018-11-07T18:51:52.208Z,15.93
2018-11-07T19:00:15.127Z,15.23
2018-11-07T19:08:36.445Z,17.70
2018-11-07T19:16:57.848Z,19.83
2018-11-07T19:25:20.338Z,27.10
2018-11-07T19:33:41.771Z,22.27
2018-11-07T19:42:03.244Z,20.43
2018-11-07T19:50:24.729Z,22.43
2018-11-07T19:58:46.114Z,22.20
2018-11-07T20:07:10.062Z,21.30
2018-11-07T20:15:31.523Z,22.40
2018-11-07T20:23:52.994Z,21.60
2018-11-07T20:32:14.485Z,18.27
2018-11-07T20:40:35.863Z,18.63
2018-11-07T20:48:57.359Z,20.33
2018-11-07T20:57:18.643Z,18.47
2018-11-07T21:14:08.471Z,28.60
2018-11-07T21:22:29.955Z,35.00
2018-11-07T21:30:51.406Z,28.53
2018-11-07T21:39:12.968Z,25.50
2018-11-07T21:47:34.343Z,26.20
2018-11-07T21:55:55.760Z,22.67
2018-11-07T22:04:17.213Z,23.03
2018-11-07T22:12:38.662Z,24.03
2018-11-07T22:21:00.115Z,24.37
2018-11-07T22:29:22.396Z,26.43
2018-11-07T22:37:44.590Z,23.43
2018-11-07T22:46:05.950Z,23.83
2018-11-07T22:54:27.415Z,26.27
2018-11-07T23:02:50.517Z,25.17
2018-11-07T23:11:11.892Z,27.13
2018-11-07T23:19:33.393Z,25.97
2018-11-07T23:27:54.685Z,25.13
2018-11-07T23:36:16.045Z,21.03
2018-11-07T23:44:37.407Z,24.43
2018-11-07T23:52:58.796Z,24.50
